sensor_id;sensor_type;location;lat;lon;timestamp;P1;durP1;ratioP1;P2;durP2;ratioP2
75071;SDS011;63651;55.728;38.022;2023-04-24T00:00:28;19.27;;;11.48;;
75071;SDS011;63651;55.728;38.022;2023-04-24T00:05:30;17.80;;;11.65;;
75071;SDS011;63651;55.728;38.022;2023-04-24T00:10:32;19.75;;;11.73;;
75071;SDS011;63651;55.728;38.022;2023-04-24T00:15:33;19.20;;;11.45;;
75071;SDS011;63651;55.728;38.022;2023-04-24T00:20:35;20.95;;;11.27;;
75071;SDS011;63651;55.728;38.022;2023-04-24T00:25:36;20.90;;;12.95;;
75071;SDS011;63651;55.728;38.022;2023-04-24T00:30:37;21.55;;;11.73;;
75071;SDS011;63651;55.728;38.022;2023-04-24T00:35:38;17.70;;;10.63;;
75071;SDS011;63651;55.728;38.022;2023-04-24T00:40:39;19.77;;;10.65;;
75071;SDS011;63651;55.728;38.022;2023-04-24T00:45:40;18.77;;;10.75;;
75071;SDS011;63651;55.728;38.022;2023-04-24T00:50:41;19.63;;;12.15;;
75071;SDS011;63651;55.728;38.022;2023-04-24T00:55:42;16.15;;;10.50;;
75071;SDS011;63651;55.728;38.022;2023-04-24T01:00:43;15.48;;;10.13;;
75071;SDS011;63651;55.728;38.022;2023-04-24T01:05:45;17.92;;;10.70;;
75071;SDS011;63651;55.728;38.022;2023-04-24T01:10:47;16.35;;;10.65;;
75071;SDS011;63651;55.728;38.022;2023-04-24T01:15:51;15.70;;;9.63;;
75071;SDS011;63651;55.728;38.022;2023-04-24T01:20:53;14.68;;;9.30;;
75071;SDS011;63651;55.728;38.022;2023-04-24T01:25:57;16.33;;;10.77;;
75071;SDS011;63651;55.728;38.022;2023-04-24T01:30:58;16.02;;;10.00;;
75071;SDS011;63651;55.728;38.022;2023-04-24T01:36:00;13.32;;;9.77;;
75071;SDS011;63651;55.728;38.022;2023-04-24T01:41:01;12.95;;;9.13;;
75071;SDS011;63651;55.728;38.022;2023-04-24T01:46:03;14.95;;;8.82;;
75071;SDS011;63651;55.728;38.022;2023-04-24T01:51:04;14.52;;;9.00;;
75071;SDS011;63651;55.728;38.022;2023-04-24T01:56:05;12.23;;;8.15;;
75071;SDS011;63651;55.728;38.022;2023-04-24T02:01:07;12.73;;;8.68;;
75071;SDS011;63651;55.728;38.022;2023-04-24T02:06:08;13.82;;;8.63;;
75071;SDS011;63651;55.728;38.022;2023-04-24T02:11:09;14.13;;;9.43;;
75071;SDS011;63651;55.728;38.022;2023-04-24T02:16:10;13.15;;;8.93;;
75071;SDS011;63651;55.728;38.022;2023-04-24T02:21:11;14.32;;;8.77;;
75071;SDS011;63651;55.728;38.022;2023-04-24T02:26:12;13.95;;;8.35;;
75071;SDS011;63651;55.728;38.022;2023-04-24T02:31:13;12.57;;;8.65;;
75071;SDS011;63651;55.728;38.022;2023-04-24T02:36:15;13.35;;;8.95;;
75071;SDS011;63651;55.728;38.022;2023-04-24T02:41:16;13.93;;;8.75;;
75071;SDS011;63651;55.728;38.022;2023-04-24T02:46:17;17.08;;;9.23;;
75071;SDS011;63651;55.728;38.022;2023-04-24T02:51:18;14.15;;;8.80;;
75071;SDS011;63651;55.728;38.022;2023-04-24T02:56:19;17.85;;;9.48;;
75071;SDS011;63651;55.728;38.022;2023-04-24T03:01:20;14.63;;;8.82;;
75071;SDS011;63651;55.728;38.022;2023-04-24T03:06:21;16.17;;;9.93;;
75071;SDS011;63651;55.728;38.022;2023-04-24T03:11:22;12.77;;;9.23;;
75071;SDS011;63651;55.728;38.022;2023-04-24T03:16:23;15.73;;;9.07;;
75071;SDS011;63651;55.728;38.022;2023-04-24T03:21:24;14.27;;;9.27;;
75071;SDS011;63651;55.728;38.022;2023-04-24T03:26:25;15.57;;;8.80;;
75071;SDS011;63651;55.728;38.022;2023-04-24T03:31:26;15.68;;;9.57;;
75071;SDS011;63651;55.728;38.022;2023-04-24T03:36:27;16.45;;;10.02;;
75071;SDS011;63651;55.728;38.022;2023-04-24T03:41:28;13.68;;;9.52;;
75071;SDS011;63651;55.728;38.022;2023-04-24T03:46:30;16.45;;;10.20;;
75071;SDS011;63651;55.728;38.022;2023-04-24T03:51:31;13.13;;;9.05;;
75071;SDS011;63651;55.728;38.022;2023-04-24T03:56:32;14.07;;;8.60;;
75071;SDS011;63651;55.728;38.022;2023-04-24T04:01:33;12.48;;;9.07;;
75071;SDS011;63651;55.728;38.022;2023-04-24T04:06:37;15.60;;;9.48;;
75071;SDS011;63651;55.728;38.022;2023-04-24T04:11:38;19.77;;;9.68;;
75071;SDS011;63651;55.728;38.022;2023-04-24T04:16:39;14.98;;;9.35;;
75071;SDS011;63651;55.728;38.022;2023-04-24T04:21:41;14.60;;;9.88;;
75071;SDS011;63651;55.728;38.022;2023-04-24T04:26:42;14.15;;;9.23;;
75071;SDS011;63651;55.728;38.022;2023-04-24T04:31:46;13.80;;;8.80;;
75071;SDS011;63651;55.728;38.022;2023-04-24T04:36:47;12.50;;;9.40;;
75071;SDS011;63651;55.728;38.022;2023-04-24T04:41:49;11.63;;;9.15;;
75071;SDS011;63651;55.728;38.022;2023-04-24T04:46:50;16.48;;;10.70;;
75071;SDS011;63651;55.728;38.022;2023-04-24T04:51:53;16.95;;;11.57;;
75071;SDS011;63651;55.728;38.022;2023-04-24T04:56:54;15.48;;;11.20;;
75071;SDS011;63651;55.728;38.022;2023-04-24T05:01:56;18.10;;;11.23;;
75071;SDS011;63651;55.728;38.022;2023-04-24T05:06:57;15.73;;;9.98;;
75071;SDS011;63651;55.728;38.022;2023-04-24T05:11:58;15.50;;;9.52;;
75071;SDS011;63651;55.728;38.022;2023-04-24T05:16:59;13.85;;;9.40;;
75071;SDS011;63651;55.728;38.022;2023-04-24T05:22:00;17.45;;;9.73;;
75071;SDS011;63651;55.728;38.022;2023-04-24T05:27:03;13.77;;;8.15;;
75071;SDS011;63651;55.728;38.022;2023-04-24T05:32:07;12.68;;;8.10;;
75071;SDS011;63651;55.728;38.022;2023-04-24T05:37:08;11.82;;;8.38;;
75071;SDS011;63651;55.728;38.022;2023-04-24T05:42:10;12.23;;;8.48;;
75071;SDS011;63651;55.728;38.022;2023-04-24T05:52:31;18.90;;;17.10;;
75071;SDS011;63651;55.728;38.022;2023-04-24T05:57:32;74.65;;;71.10;;
75071;SDS011;63651;55.728;38.022;2023-04-24T06:02:33;68.13;;;64.47;;
75071;SDS011;63651;55.728;38.022;2023-04-24T06:07:34;74.82;;;71.28;;
75071;SDS011;63651;55.728;38.022;2023-04-24T06:12:36;91.30;;;87.35;;
75071;SDS011;63651;55.728;38.022;2023-04-24T06:17:37;70.50;;;67.20;;
75071;SDS011;63651;55.728;38.022;2023-04-24T06:22:39;87.47;;;83.88;;
75071;SDS011;63651;55.728;38.022;2023-04-24T06:27:40;99.88;;;95.85;;
75071;SDS011;63651;55.728;38.022;2023-04-24T06:32:41;113.45;;;109.00;;
75071;SDS011;63651;55.728;38.022;2023-04-24T06:37:42;137.85;;;132.55;;
75071;SDS011;63651;55.728;38.022;2023-04-24T06:42:44;113.47;;;109.00;;
75071;SDS011;63651;55.728;38.022;2023-04-24T06:47:45;101.00;;;97.22;;
75071;SDS011;63651;55.728;38.022;2023-04-24T06:52:47;110.75;;;106.53;;
75071;SDS011;63651;55.728;38.022;2023-04-24T06:57:48;73.90;;;71.15;;
75071;SDS011;63651;55.728;38.022;2023-04-24T07:02:50;89.00;;;85.53;;
75071;SDS011;63651;55.728;38.022;2023-04-24T07:07:52;114.90;;;110.85;;
75071;SDS011;63651;55.728;38.022;2023-04-24T07:12:54;110.00;;;105.95;;
75071;SDS011;63651;55.728;38.022;2023-04-24T07:17:56;100.07;;;96.18;;
75071;SDS011;63651;55.728;38.022;2023-04-24T07:22:58;173.30;;;167.57;;
75071;SDS011;63651;55.728;38.022;2023-04-24T07:27:59;89.50;;;86.25;;
75071;SDS011;63651;55.728;38.022;2023-04-24T07:33:00;61.53;;;59.22;;
75071;SDS011;63651;55.728;38.022;2023-04-24T07:38:01;101.13;;;97.40;;
75071;SDS011;63651;55.728;38.022;2023-04-24T07:43:02;88.68;;;85.50;;
75071;SDS011;63651;55.728;38.022;2023-04-24T07:48:03;73.60;;;70.82;;
75071;SDS011;63651;55.728;38.022;2023-04-24T07:53:04;137.18;;;132.50;;
75071;SDS011;63651;55.728;38.022;2023-04-24T07:58:05;109.90;;;106.10;;
75071;SDS011;63651;55.728;38.022;2023-04-24T08:03:07;153.57;;;148.25;;
75071;SDS011;63651;55.728;38.022;2023-04-24T08:08:08;74.43;;;71.68;;
75071;SDS011;63651;55.728;38.022;2023-04-24T08:13:12;123.60;;;119.35;;
75071;SDS011;63651;55.728;38.022;2023-04-24T08:18:13;152.32;;;147.15;;
75071;SDS011;63651;55.728;38.022;2023-04-24T08:23:33;112.45;;;108.53;;
75071;SDS011;63651;55.728;38.022;2023-04-24T08:28:34;100.93;;;97.22;;
75071;SDS011;63651;55.728;38.022;2023-04-24T08:33:35;67.82;;;65.35;;
75071;SDS011;63651;55.728;38.022;2023-04-24T08:38:37;48.25;;;46.35;;
75071;SDS011;63651;55.728;38.022;2023-04-24T08:43:39;117.30;;;113.18;;
75071;SDS011;63651;55.728;38.022;2023-04-24T08:48:42;89.93;;;86.88;;
75071;SDS011;63651;55.728;38.022;2023-04-24T08:53:43;81.78;;;78.93;;
75071;SDS011;63651;55.728;38.022;2023-04-24T08:58:46;52.40;;;50.55;;
75071;SDS011;63651;55.728;38.022;2023-04-24T09:03:48;113.45;;;109.43;;
75071;SDS011;63651;55.728;38.022;2023-04-24T09:08:50;100.55;;;97.07;;
75071;SDS011;63651;55.728;38.022;2023-04-24T09:13:54;77.80;;;74.95;;
75071;SDS011;63651;55.728;38.022;2023-04-24T09:18:56;113.72;;;109.85;;
75071;SDS011;63651;55.728;38.022;2023-04-24T09:23:58;109.60;;;105.82;;
75071;SDS011;63651;55.728;38.022;2023-04-24T09:29:15;179.73;;;173.85;;
75071;SDS011;63651;55.728;38.022;2023-04-24T09:34:24;119.78;;;115.70;;
75071;SDS011;63651;55.728;38.022;2023-04-24T09:39:26;90.80;;;87.75;;
75071;SDS011;63651;55.728;38.022;2023-04-24T09:44:27;79.13;;;76.28;;
75071;SDS011;63651;55.728;38.022;2023-04-24T09:49:29;171.15;;;165.57;;
75071;SDS011;63651;55.728;38.022;2023-04-24T09:54:33;55.88;;;53.90;;
75071;SDS011;63651;55.728;38.022;2023-04-24T09:59:41;190.48;;;184.20;;
75071;SDS011;63651;55.728;38.022;2023-04-24T10:04:54;91.22;;;87.85;;
75071;SDS011;63651;55.728;38.022;2023-04-24T10:09:57;87.50;;;84.60;;
75071;SDS011;63651;55.728;38.022;2023-04-24T10:14:59;133.77;;;129.48;;
75071;SDS011;63651;55.728;38.022;2023-04-24T10:20:02;57.38;;;55.10;;
75071;SDS011;63651;55.728;38.022;2023-04-24T10:25:04;105.07;;;101.63;;
75071;SDS011;63651;55.728;38.022;2023-04-24T10:30:07;178.43;;;170.57;;
75071;SDS011;63651;55.728;38.022;2023-04-24T10:35:09;196.77;;;188.77;;
75071;SDS011;63651;55.728;38.022;2023-04-24T10:40:17;183.85;;;176.93;;
75071;SDS011;63651;55.728;38.022;2023-04-24T10:45:20;251.80;;;242.57;;
75071;SDS011;63651;55.728;38.022;2023-04-24T10:50:22;260.70;;;248.98;;
75071;SDS011;63651;55.728;38.022;2023-04-24T11:01:03;228.77;;;220.18;;
75071;SDS011;63651;55.728;38.022;2023-04-24T11:06:05;327.00;;;313.42;;
75071;SDS011;63651;55.728;38.022;2023-04-24T11:11:09;251.35;;;242.18;;
75071;SDS011;63651;55.728;38.022;2023-04-24T11:16:23;336.42;;;323.90;;
75071;SDS011;63651;55.728;38.022;2023-04-24T11:21:44;199.80;;;192.52;;
75071;SDS011;63651;55.728;38.022;2023-04-24T11:26:47;283.38;;;273.60;;
75071;SDS011;63651;55.728;38.022;2023-04-24T11:31:48;349.70;;;335.38;;
75071;SDS011;63651;55.728;38.022;2023-04-24T11:36:51;339.20;;;325.45;;
75071;SDS011;63651;55.728;38.022;2023-04-24T11:41:52;328.02;;;314.92;;
75071;SDS011;63651;55.728;38.022;2023-04-24T11:46:55;359.63;;;344.15;;
75071;SDS011;63651;55.728;38.022;2023-04-24T11:51:56;358.27;;;343.80;;
75071;SDS011;63651;55.728;38.022;2023-04-24T11:56:57;431.65;;;413.80;;
75071;SDS011;63651;55.728;38.022;2023-04-24T12:01:59;302.45;;;290.85;;
75071;SDS011;63651;55.728;38.022;2023-04-24T12:07:03;318.42;;;305.75;;
75071;SDS011;63651;55.728;38.022;2023-04-24T12:12:05;316.05;;;303.23;;
75071;SDS011;63651;55.728;38.022;2023-04-24T12:17:07;411.77;;;394.08;;
75071;SDS011;63651;55.728;38.022;2023-04-24T12:22:08;442.25;;;423.13;;
75071;SDS011;63651;55.728;38.022;2023-04-24T12:27:18;453.42;;;434.90;;
75071;SDS011;63651;55.728;38.022;2023-04-24T12:32:21;501.83;;;479.65;;
75071;SDS011;63651;55.728;38.022;2023-04-24T12:37:25;315.00;;;301.63;;
75071;SDS011;63651;55.728;38.022;2023-04-24T12:42:32;362.00;;;344.90;;
75071;SDS011;63651;55.728;38.022;2023-04-24T12:47:34;503.48;;;478.98;;
75071;SDS011;63651;55.728;38.022;2023-04-24T12:52:36;517.60;;;492.55;;
75071;SDS011;63651;55.728;38.022;2023-04-24T12:57:39;690.03;;;654.58;;
75071;SDS011;63651;55.728;38.022;2023-04-24T13:02:41;630.97;;;598.72;;
75071;SDS011;63651;55.728;38.022;2023-04-24T13:07:42;719.25;;;678.28;;
75071;SDS011;63651;55.728;38.022;2023-04-24T13:12:43;696.03;;;657.75;;
75071;SDS011;63651;55.728;38.022;2023-04-24T13:17:46;702.53;;;662.90;;
75071;SDS011;63651;55.728;38.022;2023-04-24T13:22:47;821.42;;;772.20;;
75071;SDS011;63651;55.728;38.022;2023-04-24T13:27:48;787.42;;;742.08;;
75071;SDS011;63651;55.728;38.022;2023-04-24T13:32:49;916.72;;;851.67;;
75071;SDS011;63651;55.728;38.022;2023-04-24T13:37:50;885.95;;;825.08;;
75071;SDS011;63651;55.728;38.022;2023-04-24T13:42:52;983.35;;;912.33;;
75071;SDS011;63651;55.728;38.022;2023-04-24T13:47:53;876.13;;;817.88;;
75071;SDS011;63651;55.728;38.022;2023-04-24T13:52:54;939.80;;;873.70;;
75071;SDS011;63651;55.728;38.022;2023-04-24T13:57:57;925.63;;;865.13;;
75071;SDS011;63651;55.728;38.022;2023-04-24T14:02:58;714.55;;;675.85;;
75071;SDS011;63651;55.728;38.022;2023-04-24T14:07:59;745.85;;;700.67;;
75071;SDS011;63651;55.728;38.022;2023-04-24T14:13:00;723.22;;;685.30;;
75071;SDS011;63651;55.728;38.022;2023-04-24T14:18:01;750.72;;;706.58;;
75071;SDS011;63651;55.728;38.022;2023-04-24T14:23:03;828.67;;;775.95;;
75071;SDS011;63651;55.728;38.022;2023-04-24T14:28:05;652.78;;;620.28;;
75071;SDS011;63651;55.728;38.022;2023-04-24T14:33:06;725.10;;;684.83;;
75071;SDS011;63651;55.728;38.022;2023-04-24T14:38:07;771.10;;;728.25;;
75071;SDS011;63651;55.728;38.022;2023-04-24T14:43:09;756.50;;;713.95;;
75071;SDS011;63651;55.728;38.022;2023-04-24T14:48:10;850.13;;;793.80;;
75071;SDS011;63651;55.728;38.022;2023-04-24T14:53:11;715.45;;;674.67;;
75071;SDS011;63651;55.728;38.022;2023-04-24T14:58:12;674.47;;;637.90;;
75071;SDS011;63651;55.728;38.022;2023-04-24T15:03:14;743.95;;;703.88;;
75071;SDS011;63651;55.728;38.022;2023-04-24T15:08:15;615.13;;;582.00;;
75071;SDS011;63651;55.728;38.022;2023-04-24T15:13:16;749.45;;;706.35;;
75071;SDS011;63651;55.728;38.022;2023-04-24T15:18:17;774.35;;;728.30;;
75071;SDS011;63651;55.728;38.022;2023-04-24T15:23:18;829.20;;;770.03;;
75071;SDS011;63651;55.728;38.022;2023-04-24T15:28:19;694.85;;;652.33;;
75071;SDS011;63651;55.728;38.022;2023-04-24T15:33:22;657.90;;;619.35;;
75071;SDS011;63651;55.728;38.022;2023-04-24T15:38:23;625.28;;;590.08;;
75071;SDS011;63651;55.728;38.022;2023-04-24T15:43:24;591.45;;;561.58;;
75071;SDS011;63651;55.728;38.022;2023-04-24T15:48:26;698.58;;;662.60;;
75071;SDS011;63651;55.728;38.022;2023-04-24T15:53:28;731.58;;;689.90;;
75071;SDS011;63651;55.728;38.022;2023-04-24T15:58:29;464.33;;;441.83;;
75071;SDS011;63651;55.728;38.022;2023-04-24T16:03:30;407.58;;;388.73;;
75071;SDS011;63651;55.728;38.022;2023-04-24T16:08:31;348.80;;;333.75;;
75071;SDS011;63651;55.728;38.022;2023-04-24T16:13:32;418.27;;;396.90;;
75071;SDS011;63651;55.728;38.022;2023-04-24T16:18:34;270.98;;;258.30;;
75071;SDS011;63651;55.728;38.022;2023-04-24T16:23:35;327.92;;;313.17;;
75071;SDS011;63651;55.728;38.022;2023-04-24T16:28:36;309.67;;;296.73;;
75071;SDS011;63651;55.728;38.022;2023-04-24T16:33:37;247.95;;;237.70;;
75071;SDS011;63651;55.728;38.022;2023-04-24T16:38:39;286.58;;;273.70;;
75071;SDS011;63651;55.728;38.022;2023-04-24T16:43:40;240.20;;;229.48;;
75071;SDS011;63651;55.728;38.022;2023-04-24T16:48:41;175.38;;;167.90;;
75071;SDS011;63651;55.728;38.022;2023-04-24T16:53:42;238.27;;;228.70;;
75071;SDS011;63651;55.728;38.022;2023-04-24T16:58:43;319.00;;;303.08;;
75071;SDS011;63651;55.728;38.022;2023-04-24T17:03:44;184.57;;;177.23;;
75071;SDS011;63651;55.728;38.022;2023-04-24T17:08:46;111.78;;;107.53;;
75071;SDS011;63651;55.728;38.022;2023-04-24T17:13:47;96.50;;;92.70;;
75071;SDS011;63651;55.728;38.022;2023-04-24T17:18:48;92.72;;;88.78;;
75071;SDS011;63651;55.728;38.022;2023-04-24T17:23:50;102.68;;;98.22;;
75071;SDS011;63651;55.728;38.022;2023-04-24T17:28:51;97.22;;;92.88;;
75071;SDS011;63651;55.728;38.022;2023-04-24T17:33:54;82.97;;;78.53;;
75071;SDS011;63651;55.728;38.022;2023-04-24T17:38:55;71.00;;;67.32;;
75071;SDS011;63651;55.728;38.022;2023-04-24T17:43:56;73.38;;;69.78;;
75071;SDS011;63651;55.728;38.022;2023-04-24T17:48:58;76.03;;;71.70;;
75071;SDS011;63651;55.728;38.022;2023-04-24T17:53:59;75.38;;;70.20;;
75071;SDS011;63651;55.728;38.022;2023-04-24T17:59:00;71.25;;;66.70;;
75071;SDS011;63651;55.728;38.022;2023-04-24T18:04:01;64.78;;;60.65;;
75071;SDS011;63651;55.728;38.022;2023-04-24T18:09:02;56.50;;;52.38;;
75071;SDS011;63651;55.728;38.022;2023-04-24T18:14:03;49.40;;;46.05;;
75071;SDS011;63651;55.728;38.022;2023-04-24T18:19:04;54.30;;;51.30;;
75071;SDS011;63651;55.728;38.022;2023-04-24T18:24:05;45.45;;;42.47;;
75071;SDS011;63651;55.728;38.022;2023-04-24T18:29:06;49.85;;;46.67;;
75071;SDS011;63651;55.728;38.022;2023-04-24T18:34:08;74.00;;;69.57;;
75071;SDS011;63651;55.728;38.022;2023-04-24T18:39:09;49.88;;;46.50;;
75071;SDS011;63651;55.728;38.022;2023-04-24T18:44:10;50.97;;;47.72;;
75071;SDS011;63651;55.728;38.022;2023-04-24T18:49:11;51.10;;;47.78;;
75071;SDS011;63651;55.728;38.022;2023-04-24T18:54:12;41.33;;;38.40;;
75071;SDS011;63651;55.728;38.022;2023-04-24T18:59:13;46.47;;;43.10;;
75071;SDS011;63651;55.728;38.022;2023-04-24T19:04:15;55.60;;;52.13;;
75071;SDS011;63651;55.728;38.022;2023-04-24T19:09:16;47.53;;;43.72;;
75071;SDS011;63651;55.728;38.022;2023-04-24T19:14:17;40.00;;;37.33;;
75071;SDS011;63651;55.728;38.022;2023-04-24T19:19:18;39.55;;;36.80;;
75071;SDS011;63651;55.728;38.022;2023-04-24T19:24:19;43.75;;;40.72;;
75071;SDS011;63651;55.728;38.022;2023-04-24T19:29:21;47.95;;;44.53;;
75071;SDS011;63651;55.728;38.022;2023-04-24T19:34:22;62.00;;;58.03;;
75071;SDS011;63651;55.728;38.022;2023-04-24T19:39:23;46.95;;;43.75;;
75071;SDS011;63651;55.728;38.022;2023-04-24T19:44:24;99.50;;;95.20;;
75071;SDS011;63651;55.728;38.022;2023-04-24T19:49:26;73.30;;;69.63;;
75071;SDS011;63651;55.728;38.022;2023-04-24T19:54:27;68.88;;;65.43;;
75071;SDS011;63651;55.728;38.022;2023-04-24T19:59:28;81.88;;;77.82;;
75071;SDS011;63651;55.728;38.022;2023-04-24T20:04:29;74.55;;;70.13;;
75071;SDS011;63651;55.728;38.022;2023-04-24T20:09:30;78.97;;;74.88;;
75071;SDS011;63651;55.728;38.022;2023-04-24T20:14:31;57.45;;;53.75;;
75071;SDS011;63651;55.728;38.022;2023-04-24T20:19:32;53.95;;;50.47;;
75071;SDS011;63651;55.728;38.022;2023-04-24T20:24:33;60.42;;;56.85;;
75071;SDS011;63651;55.728;38.022;2023-04-24T20:29:34;34.15;;;31.60;;
75071;SDS011;63651;55.728;38.022;2023-04-24T20:34:35;36.95;;;34.67;;
75071;SDS011;63651;55.728;38.022;2023-04-24T20:39:36;37.97;;;35.65;;
75071;SDS011;63651;55.728;38.022;2023-04-24T20:44:38;43.78;;;40.90;;
75071;SDS011;63651;55.728;38.022;2023-04-24T20:49:39;42.28;;;39.17;;
75071;SDS011;63651;55.728;38.022;2023-04-24T20:54:40;43.85;;;40.72;;
75071;SDS011;63651;55.728;38.022;2023-04-24T20:59:41;49.42;;;46.55;;
75071;SDS011;63651;55.728;38.022;2023-04-24T21:04:42;39.50;;;36.70;;
75071;SDS011;63651;55.728;38.022;2023-04-24T21:09:43;41.70;;;39.28;;
75071;SDS011;63651;55.728;38.022;2023-04-24T21:14:45;59.42;;;56.40;;
75071;SDS011;63651;55.728;38.022;2023-04-24T21:19:46;49.70;;;46.75;;
75071;SDS011;63651;55.728;38.022;2023-04-24T21:24:47;47.78;;;44.92;;
75071;SDS011;63651;55.728;38.022;2023-04-24T21:29:48;50.13;;;47.10;;
75071;SDS011;63651;55.728;38.022;2023-04-24T21:34:49;38.53;;;35.90;;
75071;SDS011;63651;55.728;38.022;2023-04-24T21:39:50;45.85;;;43.00;;
75071;SDS011;63651;55.728;38.022;2023-04-24T21:44:51;37.83;;;35.28;;
75071;SDS011;63651;55.728;38.022;2023-04-24T21:49:52;37.38;;;34.92;;
75071;SDS011;63651;55.728;38.022;2023-04-24T21:54:53;46.95;;;44.25;;
75071;SDS011;63651;55.728;38.022;2023-04-24T21:59:54;33.38;;;31.00;;
75071;SDS011;63651;55.728;38.022;2023-04-24T22:04:56;40.00;;;37.60;;
75071;SDS011;63651;55.728;38.022;2023-04-24T22:09:57;37.50;;;35.10;;
75071;SDS011;63651;55.728;38.022;2023-04-24T22:14:58;38.15;;;35.92;;
75071;SDS011;63651;55.728;38.022;2023-04-24T22:20:00;41.97;;;39.67;;
75071;SDS011;63651;55.728;38.022;2023-04-24T22:25:01;44.90;;;42.40;;
75071;SDS011;63651;55.728;38.022;2023-04-24T22:30:02;42.45;;;39.95;;
75071;SDS011;63651;55.728;38.022;2023-04-24T22:35:04;48.47;;;45.58;;
75071;SDS011;63651;55.728;38.022;2023-04-24T22:40:05;38.10;;;35.80;;
75071;SDS011;63651;55.728;38.022;2023-04-24T22:45:08;37.50;;;35.25;;
75071;SDS011;63651;55.728;38.022;2023-04-24T22:50:11;53.42;;;50.45;;
75071;SDS011;63651;55.728;38.022;2023-04-24T22:55:12;43.83;;;40.92;;
75071;SDS011;63651;55.728;38.022;2023-04-24T23:00:13;35.78;;;33.75;;
75071;SDS011;63651;55.728;38.022;2023-04-24T23:05:15;47.47;;;44.65;;
75071;SDS011;63651;55.728;38.022;2023-04-24T23:10:16;35.65;;;33.55;;
75071;SDS011;63651;55.728;38.022;2023-04-24T23:15:17;37.92;;;35.83;;
75071;SDS011;63651;55.728;38.022;2023-04-24T23:20:20;36.45;;;34.30;;
75071;SDS011;63651;55.728;38.022;2023-04-24T23:25:21;37.80;;;35.50;;
75071;SDS011;63651;55.728;38.022;2023-04-24T23:30:22;37.90;;;35.72;;
75071;SDS011;63651;55.728;38.022;2023-04-24T23:35:23;31.63;;;29.65;;
75071;SDS011;63651;55.728;38.022;2023-04-24T23:40:25;36.30;;;34.25;;
75071;SDS011;63651;55.728;38.022;2023-04-24T23:45:26;35.92;;;33.60;;
75071;SDS011;63651;55.728;38.022;2023-04-24T23:50:27;34.22;;;32.25;;
75071;SDS011;63651;55.728;38.022;2023-04-24T23:55:28;32.75;;;30.55;;
